createdAt,value
2023-05-06T00:01:57.505Z,6.00
2023-05-06T00:04:24.395Z,5.90
2023-05-06T00:06:51.334Z,6.60
2023-05-06T00:09:18.024Z,6.10
2023-05-06T00:11:45.799Z,6.33
2023-05-06T00:14:12.553Z,6.63
2023-05-06T00:16:39.145Z,6.37
2023-05-06T00:19:06.511Z,7.07
2023-05-06T00:21:33.161Z,6.20
2023-05-06T00:23:59.754Z,6.97
2023-05-06T00:26:26.635Z,6.40
2023-05-06T00:28:53.248Z,6.83
2023-05-06T00:31:19.880Z,7.53
2023-05-06T00:33:46.613Z,7.03
2023-05-06T00:36:13.190Z,8.73
2023-05-06T00:38:39.811Z,7.50
2023-05-06T00:41:06.454Z,7.73
2023-05-06T00:43:33.040Z,8.17
2023-05-06T00:46:00.165Z,8.07
2023-05-06T00:48:26.837Z,8.60
2023-05-06T00:50:53.885Z,8.43
2023-05-06T00:53:21.780Z,8.10
2023-05-06T00:55:50.192Z,8.53
2023-05-06T00:58:18.829Z,7.93
2023-05-06T01:00:45.547Z,8.63
2023-05-06T01:03:12.189Z,9.53
2023-05-06T01:06:02.689Z,9.50
2023-05-06T01:08:44.142Z,8.70
2023-05-06T01:11:22.403Z,8.57
2023-05-06T01:14:06.590Z,9.37
2023-05-06T01:16:37.807Z,9.00
2023-05-06T01:19:08.689Z,7.97
2023-05-06T01:21:37.842Z,9.30
2023-05-06T01:24:04.677Z,9.13
2023-05-06T01:26:31.464Z,10.03
2023-05-06T01:28:58.509Z,9.00
2023-05-06T01:31:42.762Z,9.07
2023-05-06T01:34:18.300Z,9.20
2023-05-06T01:37:12.382Z,9.07
2023-05-06T01:39:42.357Z,9.80
2023-05-06T01:42:10.039Z,9.70
2023-05-06T01:44:38.827Z,9.90
2023-05-06T01:47:07.389Z,11.10
2023-05-06T01:49:34.488Z,9.97
2023-05-06T01:52:02.319Z,10.27
2023-05-06T01:54:29.016Z,9.47
2023-05-06T01:56:55.559Z,10.07
2023-05-06T01:59:22.189Z,9.70
2023-05-06T02:01:48.832Z,9.30
2023-05-06T02:04:15.568Z,9.60
2023-05-06T02:06:42.427Z,10.30
2023-05-06T02:09:09.295Z,11.30
2023-05-06T02:11:35.865Z,11.73
2023-05-06T02:14:02.432Z,11.30
2023-05-06T02:16:29.228Z,11.63
2023-05-06T02:18:55.866Z,12.80
2023-05-06T02:21:23.412Z,13.47
2023-05-06T02:23:50.545Z,11.73
2023-05-06T02:26:17.182Z,13.23
2023-05-06T02:28:44.782Z,13.13
2023-05-06T02:31:17.841Z,11.33
2023-05-06T02:33:45.850Z,13.80
2023-05-06T02:36:12.371Z,12.20
2023-05-06T02:38:38.960Z,11.57
2023-05-06T02:41:05.782Z,11.77
2023-05-06T02:43:32.401Z,12.30
2023-05-06T02:45:58.968Z,13.43
2023-05-06T02:48:25.579Z,12.03
2023-05-06T02:50:52.393Z,12.30
2023-05-06T02:53:18.984Z,10.87
2023-05-06T02:55:45.593Z,12.10
2023-05-06T02:58:12.148Z,13.60
2023-05-06T03:00:38.698Z,11.90
2023-05-06T03:03:05.405Z,12.50
2023-05-06T03:05:31.985Z,11.73
2023-05-06T03:07:58.609Z,11.63
2023-05-06T03:10:25.191Z,11.67
2023-05-06T03:12:51.836Z,10.90
2023-05-06T03:15:18.488Z,10.20
2023-05-06T03:17:46.532Z,11.40
2023-05-06T03:20:13.577Z,11.20
2023-05-06T03:22:42.112Z,10.43
2023-05-06T03:25:09.337Z,10.60
2023-05-06T03:27:36.164Z,10.10
2023-05-06T03:30:03.349Z,9.53
2023-05-06T03:32:30.681Z,9.70
2023-05-06T03:34:57.297Z,9.30
2023-05-06T03:37:23.877Z,10.37
2023-05-06T03:39:50.448Z,11.80
2023-05-06T03:42:17.014Z,10.17
2023-05-06T03:44:43.582Z,11.43
2023-05-06T03:47:10.687Z,10.50
2023-05-06T03:49:37.228Z,10.27
2023-05-06T03:52:04.283Z,11.47
2023-05-06T03:54:31.066Z,10.20
2023-05-06T03:56:57.684Z,11.27
2023-05-06T03:59:24.317Z,10.53
2023-05-06T04:01:51.106Z,11.00
2023-05-06T04:04:17.811Z,10.70
2023-05-06T04:06:44.540Z,11.30
2023-05-06T04:09:11.084Z,12.60
2023-05-06T04:11:37.648Z,11.63
2023-05-06T04:14:04.208Z,13.00
2023-05-06T04:16:30.832Z,13.47
2023-05-06T04:18:57.768Z,13.47
2023-05-06T04:21:24.432Z,13.00
2023-05-06T04:23:50.960Z,13.97
2023-05-06T04:26:17.560Z,13.30
2023-05-06T04:28:44.090Z,13.80
2023-05-06T04:31:10.919Z,13.90
2023-05-06T04:33:37.504Z,15.03
2023-05-06T04:36:05.680Z,14.00
2023-05-06T04:38:32.809Z,13.63
2023-05-06T04:40:59.506Z,14.10
2023-05-06T04:43:27.570Z,12.63
2023-05-06T04:45:54.268Z,13.37
2023-05-06T04:48:22.244Z,13.87
2023-05-06T04:50:49.811Z,13.80
2023-05-06T04:53:16.682Z,13.60
2023-05-06T04:55:43.517Z,14.40
2023-05-06T04:58:10.152Z,13.87
2023-05-06T05:00:36.704Z,14.83
2023-05-06T05:03:03.837Z,14.63
2023-05-06T05:05:32.106Z,14.40
2023-05-06T05:07:58.667Z,13.73
2023-05-06T05:10:25.190Z,15.40
2023-05-06T05:12:51.736Z,13.67
2023-05-06T05:15:18.600Z,13.83
2023-05-06T05:17:45.203Z,13.80
2023-05-06T05:20:11.903Z,14.87
2023-05-06T05:22:38.816Z,14.07
2023-05-06T05:25:07.854Z,13.60
2023-05-06T05:27:35.148Z,14.80
2023-05-06T05:30:01.741Z,13.20
2023-05-06T05:32:28.373Z,13.00
2023-05-06T05:34:55.059Z,14.90
2023-05-06T05:37:21.614Z,14.00
2023-05-06T05:39:48.199Z,13.93
2023-05-06T05:42:14.753Z,13.63
2023-05-06T05:44:41.313Z,12.80
2023-05-06T05:47:07.848Z,12.93
2023-05-06T05:49:34.460Z,13.97
2023-05-06T05:52:01.038Z,13.20
2023-05-06T05:54:27.592Z,13.80
2023-05-06T05:56:54.167Z,14.33
2023-05-06T05:59:20.817Z,14.13
2023-05-06T06:01:47.487Z,12.93
2023-05-06T06:04:14.226Z,13.03
2023-05-06T06:06:40.797Z,12.57
2023-05-06T06:09:07.645Z,13.07
2023-05-06T06:11:34.230Z,13.70
2023-05-06T06:14:00.972Z,12.83
2023-05-06T06:16:27.769Z,13.30
2023-05-06T06:18:54.506Z,13.30
2023-05-06T06:21:21.267Z,12.57
2023-05-06T06:23:47.846Z,13.60
2023-05-06T06:26:14.378Z,12.57
2023-05-06T06:28:41.813Z,13.53
2023-05-06T06:31:08.403Z,13.60
2023-05-06T06:33:34.933Z,13.97
2023-05-06T06:36:01.929Z,12.37
2023-05-06T06:38:28.578Z,12.13
2023-05-06T06:40:55.120Z,13.93
2023-05-06T06:43:22.624Z,13.67
2023-05-06T06:45:49.512Z,12.97
2023-05-06T06:48:16.443Z,12.80
2023-05-06T06:50:43.495Z,13.63
2023-05-06T06:53:10.820Z,13.97
2023-05-06T06:55:37.430Z,12.97
2023-05-06T06:58:04.010Z,11.80
2023-05-06T07:00:30.615Z,12.47
2023-05-06T07:02:57.189Z,12.33
2023-05-06T07:05:23.776Z,11.10
2023-05-06T07:07:50.413Z,12.43
2023-05-06T07:10:16.986Z,12.90
2023-05-06T07:12:43.572Z,13.30
2023-05-06T07:15:10.754Z,11.30
2023-05-06T07:17:37.532Z,11.87
2023-05-06T07:20:04.463Z,11.70
2023-05-06T07:22:31.008Z,11.60
2023-05-06T07:24:57.643Z,10.63
2023-05-06T07:27:24.220Z,10.20
2023-05-06T07:29:50.872Z,11.23
2023-05-06T07:32:17.504Z,10.30
2023-05-06T07:34:44.062Z,10.40
2023-05-06T07:37:10.621Z,10.67
2023-05-06T07:39:37.200Z,10.80
2023-05-06T07:42:03.795Z,10.33
2023-05-06T07:44:30.339Z,9.53
2023-05-06T07:46:57.123Z,9.77
2023-05-06T07:49:24.036Z,10.43
2023-05-06T07:51:51.010Z,11.23
2023-05-06T07:54:17.574Z,9.60
2023-05-06T07:56:44.104Z,10.53
2023-05-06T07:59:11.739Z,10.47
2023-05-06T08:01:38.316Z,10.47
2023-05-06T08:04:05.096Z,10.40
2023-05-06T08:06:32.183Z,10.20
2023-05-06T08:08:59.285Z,9.60
2023-05-06T08:11:25.869Z,8.77
2023-05-06T08:13:52.447Z,9.57
2023-05-06T08:16:19.166Z,8.60
2023-05-06T08:18:45.736Z,9.37
2023-05-06T08:21:12.314Z,8.03
2023-05-06T08:23:38.876Z,9.03
2023-05-06T08:26:05.592Z,9.20
2023-05-06T08:28:32.142Z,9.57
2023-05-06T08:30:58.751Z,9.07
2023-05-06T08:33:25.447Z,8.57
2023-05-06T08:35:52.115Z,9.20
2023-05-06T08:38:18.732Z,8.63
2023-05-06T08:40:45.467Z,8.40
2023-05-06T08:43:14.915Z,6.53
2023-05-06T08:45:42.232Z,6.10
2023-05-06T08:48:09.416Z,6.97
2023-05-06T08:50:41.810Z,6.27
2023-05-06T08:53:11.769Z,7.93
2023-05-06T08:55:40.377Z,6.97
2023-05-06T08:58:07.854Z,6.80
2023-05-06T09:00:35.090Z,6.57
2023-05-06T09:03:01.784Z,5.27
2023-05-06T09:05:28.859Z,4.90
2023-05-06T09:07:55.490Z,6.00
2023-05-06T09:10:22.198Z,5.70
2023-05-06T09:12:48.780Z,4.80
2023-05-06T09:15:15.359Z,3.90
2023-05-06T09:17:42.007Z,4.20
2023-05-06T09:20:11.986Z,3.30
2023-05-06T09:22:40.420Z,6.13
2023-05-06T09:25:07.583Z,3.80
2023-05-06T09:27:35.091Z,3.10
2023-05-06T09:30:04.959Z,3.53
2023-05-06T09:32:31.988Z,3.40
2023-05-06T09:34:59.101Z,4.30
2023-05-06T09:37:28.482Z,4.10
2023-05-06T09:39:56.841Z,3.80
2023-05-06T09:42:26.098Z,4.27
2023-05-06T09:44:55.006Z,3.80
2023-05-06T09:47:23.677Z,4.20
2023-05-06T09:50:00.709Z,4.03
2023-05-06T09:52:31.369Z,4.30
2023-05-06T09:54:59.118Z,4.83
2023-05-06T09:57:26.614Z,4.00
2023-05-06T09:59:55.381Z,4.70
2023-05-06T10:02:23.676Z,4.30
2023-05-06T10:04:51.181Z,3.93
2023-05-06T10:07:23.362Z,3.80
2023-05-06T10:09:51.365Z,3.80
2023-05-06T10:12:19.824Z,4.17
2023-05-06T10:14:47.024Z,4.27
2023-05-06T10:17:13.954Z,3.67
2023-05-06T10:19:43.688Z,3.80
2023-05-06T10:22:40.205Z,2.97
2023-05-06T10:25:27.488Z,3.90
2023-05-06T10:27:54.094Z,3.87
2023-05-06T10:30:22.190Z,3.33
2023-05-06T10:32:52.065Z,3.70
2023-05-06T10:35:31.670Z,5.03
2023-05-06T10:37:59.299Z,4.17
2023-05-06T10:40:26.128Z,4.13
2023-05-06T10:42:52.681Z,3.00
2023-05-06T10:45:19.299Z,2.57
2023-05-06T10:47:58.023Z,2.07
2023-05-06T10:50:26.730Z,3.00
2023-05-06T10:52:55.992Z,2.83
2023-05-06T10:55:32.517Z,2.37
2023-05-06T10:58:11.367Z,3.33
2023-05-06T11:00:38.248Z,3.67
2023-05-06T11:03:11.005Z,2.73
2023-05-06T11:05:57.632Z,3.33
2023-05-06T11:08:26.304Z,2.93
2023-05-06T11:10:53.976Z,2.60
2023-05-06T11:13:26.315Z,3.03
2023-05-06T11:15:54.548Z,2.63
2023-05-06T11:18:36.898Z,3.00
2023-05-06T11:21:03.715Z,2.90
2023-05-06T11:23:42.476Z,2.20
2023-05-06T11:26:13.616Z,2.70
2023-05-06T11:28:43.329Z,2.30
2023-05-06T11:31:10.236Z,2.30
2023-05-06T11:33:37.647Z,2.37
2023-05-06T11:36:05.162Z,1.90
2023-05-06T11:38:44.618Z,2.37
2023-05-06T11:41:11.933Z,2.10
2023-05-06T11:43:39.036Z,2.20
2023-05-06T11:46:06.305Z,2.60
2023-05-06T11:48:32.876Z,2.40
2023-05-06T11:51:00.309Z,2.00
2023-05-06T11:53:26.901Z,3.00
2023-05-06T11:55:54.240Z,2.47
2023-05-06T11:58:25.502Z,2.30
2023-05-06T12:00:56.896Z,2.17
2023-05-06T12:03:25.144Z,2.20
2023-05-06T12:05:52.545Z,1.90
2023-05-06T12:08:27.890Z,2.20
2023-05-06T12:10:58.035Z,2.33
2023-05-06T12:13:24.906Z,2.20
2023-05-06T12:15:58.404Z,1.70
2023-05-06T12:18:25.890Z,1.87
2023-05-06T12:20:56.602Z,1.60
2023-05-06T12:23:23.729Z,1.87
2023-05-06T12:26:02.529Z,1.57
2023-05-06T12:28:30.459Z,1.43
2023-05-06T12:30:57.080Z,1.70
2023-05-06T12:33:23.765Z,1.57
2023-05-06T12:35:51.619Z,1.50
2023-05-06T12:38:18.508Z,1.67
2023-05-06T12:40:53.587Z,1.60
2023-05-06T12:43:31.281Z,1.30
2023-05-06T12:46:06.356Z,1.10
2023-05-06T12:48:33.422Z,1.40
2023-05-06T12:50:59.995Z,1.57
2023-05-06T12:53:34.878Z,1.30
2023-05-06T12:56:01.471Z,1.40
2023-05-06T12:58:28.083Z,1.10
2023-05-06T13:00:54.668Z,1.20
2023-05-06T13:03:21.465Z,1.40
2023-05-06T13:05:50.079Z,1.10
2023-05-06T13:08:16.759Z,1.30
2023-05-06T13:10:43.303Z,1.17
2023-05-06T13:13:09.921Z,1.33
2023-05-06T13:15:36.929Z,1.20
2023-05-06T13:18:03.762Z,1.23
2023-05-06T13:20:31.640Z,1.40
2023-05-06T13:22:58.411Z,1.53
2023-05-06T13:25:25.000Z,1.60
2023-05-06T13:27:52.326Z,1.80
2023-05-06T13:30:19.030Z,1.40
2023-05-06T13:32:46.527Z,1.27
2023-05-06T13:35:13.363Z,1.50
2023-05-06T13:37:40.081Z,1.33
2023-05-06T13:40:07.161Z,1.30
2023-05-06T13:42:33.708Z,1.30
2023-05-06T13:45:00.290Z,2.20
2023-05-06T13:47:27.037Z,1.57
2023-05-06T13:49:53.647Z,1.20
2023-05-06T13:52:20.230Z,1.30
2023-05-06T13:54:46.844Z,1.30
2023-05-06T13:57:13.476Z,1.60
2023-05-06T13:59:40.066Z,1.80
2023-05-06T14:02:09.470Z,1.50
2023-05-06T14:04:36.494Z,1.43
2023-05-06T14:07:03.086Z,1.60
2023-05-06T14:09:29.680Z,1.90
2023-05-06T14:11:56.260Z,1.50
2023-05-06T14:14:22.801Z,1.60
2023-05-06T14:16:51.558Z,2.10
2023-05-06T14:19:18.103Z,1.50
2023-05-06T14:21:44.670Z,1.37
2023-05-06T14:24:12.429Z,1.53
2023-05-06T14:26:40.303Z,1.50
2023-05-06T14:29:06.927Z,1.50
2023-05-06T14:31:34.555Z,1.37
2023-05-06T14:34:02.045Z,1.40
2023-05-06T14:36:28.696Z,1.27
2023-05-06T14:38:55.226Z,1.40
2023-05-06T14:41:21.800Z,1.50
2023-05-06T14:43:48.328Z,1.80
2023-05-06T14:46:15.811Z,1.60
2023-05-06T14:48:43.166Z,2.10
2023-05-06T14:51:09.756Z,2.47
2023-05-06T14:53:36.512Z,2.70
2023-05-06T14:56:03.136Z,2.50
2023-05-06T14:58:29.742Z,1.90
2023-05-06T15:00:56.882Z,2.00
2023-05-06T15:03:23.519Z,2.03
2023-05-06T15:05:50.861Z,2.00
2023-05-06T15:08:17.540Z,2.10
2023-05-06T15:10:44.344Z,2.30
2023-05-06T15:13:10.956Z,2.00
2023-05-06T15:15:37.547Z,2.20
2023-05-06T15:18:04.283Z,2.20
2023-05-06T15:20:31.025Z,2.60
2023-05-06T15:22:57.629Z,2.47
2023-05-06T15:25:34.402Z,2.83
2023-05-06T15:28:01.993Z,2.10
2023-05-06T15:30:28.553Z,2.07
2023-05-06T15:32:55.203Z,2.27
2023-05-06T15:35:22.038Z,1.73
2023-05-06T15:37:48.707Z,3.00
2023-05-06T15:40:15.294Z,1.90
2023-05-06T15:42:41.982Z,2.23
2023-05-06T15:45:09.038Z,2.40
2023-05-06T15:47:36.134Z,2.20
2023-05-06T15:50:06.853Z,2.20
2023-05-06T15:52:37.782Z,2.13
2023-05-06T15:55:04.962Z,2.10
2023-05-06T15:57:31.593Z,2.30
2023-05-06T15:59:58.206Z,2.67
2023-05-06T16:02:27.344Z,2.27
2023-05-06T16:04:54.713Z,1.80
2023-05-06T16:07:21.482Z,2.33
2023-05-06T16:09:49.034Z,4.50
2023-05-06T16:12:15.668Z,2.80
2023-05-06T16:14:42.257Z,2.70
2023-05-06T16:17:08.799Z,2.70
2023-05-06T16:19:35.346Z,2.90
2023-05-06T16:22:02.267Z,2.90
2023-05-06T16:24:28.844Z,2.70
2023-05-06T16:26:55.848Z,2.90
2023-05-06T16:29:22.451Z,3.63
2023-05-06T16:31:49.121Z,3.40
2023-05-06T16:34:15.848Z,2.97
2023-05-06T16:36:42.458Z,3.07
2023-05-06T16:39:09.037Z,2.87
2023-05-06T16:41:35.595Z,3.43
2023-05-06T16:44:02.179Z,2.70
2023-05-06T16:46:28.936Z,2.67
2023-05-06T16:48:55.795Z,2.80
2023-05-06T16:51:22.516Z,2.60
2023-05-06T16:53:49.168Z,2.90
2023-05-06T16:56:15.968Z,2.60
2023-05-06T16:58:42.870Z,2.80
2023-05-06T17:01:09.719Z,3.37
2023-05-06T17:03:40.362Z,3.20
2023-05-06T17:06:07.752Z,3.20
2023-05-06T17:08:36.531Z,3.97
2023-05-06T17:11:06.312Z,3.10
2023-05-06T17:13:33.214Z,2.90
2023-05-06T17:15:59.827Z,3.70
2023-05-06T17:18:26.463Z,2.93
2023-05-06T17:20:56.425Z,3.77
2023-05-06T17:23:24.334Z,3.43
2023-05-06T17:25:51.490Z,3.60
2023-05-06T17:28:18.904Z,4.07
2023-05-06T17:30:46.056Z,3.83
2023-05-06T17:33:12.975Z,3.80
2023-05-06T17:35:39.635Z,3.50
2023-05-06T17:38:06.325Z,3.57
2023-05-06T17:40:32.985Z,3.63
2023-05-06T17:42:59.554Z,5.47
2023-05-06T17:45:28.120Z,4.80
2023-05-06T17:47:55.113Z,4.57
2023-05-06T17:50:22.387Z,4.40
2023-05-06T17:52:52.040Z,5.00
2023-05-06T17:55:21.438Z,5.23
2023-05-06T17:57:48.327Z,5.17
2023-05-06T18:00:16.397Z,5.23
2023-05-06T18:02:43.607Z,4.80
2023-05-06T18:05:10.517Z,5.33
2023-05-06T18:07:37.421Z,4.90
2023-05-06T18:10:04.289Z,4.90
2023-05-06T18:12:31.423Z,5.30
2023-05-06T18:14:58.171Z,5.80
2023-05-06T18:17:24.833Z,4.93
2023-05-06T18:19:51.735Z,5.83
2023-05-06T18:22:18.271Z,5.50
2023-05-06T18:24:44.862Z,4.13
2023-05-06T18:27:12.639Z,4.37
2023-05-06T18:29:39.804Z,4.30
2023-05-06T18:32:06.727Z,4.40
2023-05-06T18:34:34.082Z,4.57
2023-05-06T18:37:00.628Z,4.47
2023-05-06T18:39:27.220Z,4.40
2023-05-06T18:41:53.759Z,5.10
2023-05-06T18:44:20.326Z,4.57
2023-05-06T18:46:46.897Z,4.07
2023-05-06T18:49:14.075Z,4.20
2023-05-06T18:51:40.792Z,3.80
2023-05-06T18:54:07.554Z,4.23
2023-05-06T18:56:34.632Z,4.07
2023-05-06T18:59:01.268Z,4.57
2023-05-06T19:01:27.951Z,4.40
2023-05-06T19:03:54.897Z,4.70
2023-05-06T19:06:21.596Z,3.90
2023-05-06T19:08:48.372Z,3.90
2023-05-06T19:11:16.314Z,4.47
2023-05-06T19:13:44.108Z,4.07
2023-05-06T19:16:11.340Z,4.47
2023-05-06T19:18:38.104Z,4.00
2023-05-06T19:21:04.984Z,4.23
2023-05-06T19:23:32.688Z,4.00
2023-05-06T19:25:59.327Z,4.03
2023-05-06T19:28:26.001Z,5.47
2023-05-06T19:30:52.836Z,5.77
2023-05-06T19:33:19.464Z,5.70
2023-05-06T19:35:46.156Z,5.50
2023-05-06T19:38:12.764Z,6.10
2023-05-06T19:40:39.389Z,5.23
2023-05-06T19:43:05.975Z,5.60
2023-05-06T19:45:33.625Z,5.97
2023-05-06T19:48:00.924Z,5.87
2023-05-06T19:50:28.406Z,5.80
2023-05-06T19:52:55.043Z,6.80
2023-05-06T19:55:22.071Z,6.00
2023-05-06T19:57:49.263Z,6.63
2023-05-06T20:00:18.152Z,6.10
2023-05-06T20:02:45.917Z,6.93
2023-05-06T20:05:12.784Z,6.37
2023-05-06T20:07:39.735Z,6.30
2023-05-06T20:10:07.234Z,6.37
2023-05-06T20:12:33.883Z,6.90
2023-05-06T20:15:00.631Z,7.23
2023-05-06T20:17:27.348Z,6.93
2023-05-06T20:19:57.108Z,7.10
2023-05-06T20:22:24.399Z,6.27
2023-05-06T20:24:51.294Z,6.67
2023-05-06T20:27:17.866Z,6.90
2023-05-06T20:29:44.454Z,6.90
2023-05-06T20:32:11.017Z,7.17
2023-05-06T20:34:37.628Z,7.40
2023-05-06T20:37:04.593Z,6.83
2023-05-06T20:39:31.247Z,7.10
2023-05-06T20:41:57.916Z,7.60
2023-05-06T20:44:24.998Z,8.03
2023-05-06T20:46:51.631Z,6.90
2023-05-06T20:49:18.759Z,8.50
2023-05-06T20:51:45.388Z,7.33
2023-05-06T20:54:12.039Z,8.80
2023-05-06T20:56:38.660Z,7.77
2023-05-06T20:59:05.833Z,8.57
2023-05-06T21:01:32.454Z,7.37
2023-05-06T21:04:01.240Z,7.23
2023-05-06T21:06:28.018Z,8.07
2023-05-06T21:08:54.724Z,7.67
2023-05-06T21:11:21.275Z,8.80
2023-05-06T21:13:49.524Z,7.23
2023-05-06T21:16:16.711Z,7.90
2023-05-06T21:18:43.323Z,7.90
2023-05-06T21:21:09.967Z,8.73
2023-05-06T21:23:36.709Z,9.43
2023-05-06T21:26:03.363Z,9.73
2023-05-06T21:28:29.937Z,8.07
2023-05-06T21:30:56.587Z,8.23
2023-05-06T21:33:23.260Z,8.23
2023-05-06T21:35:49.844Z,7.63
2023-05-06T21:38:16.481Z,7.80
2023-05-06T21:40:43.290Z,7.10
2023-05-06T21:43:10.056Z,7.70
2023-05-06T21:45:36.643Z,7.63
2023-05-06T21:48:03.438Z,7.60
2023-05-06T21:50:30.060Z,7.60
2023-05-06T21:52:56.630Z,6.87
2023-05-06T21:55:27.908Z,6.97
2023-05-06T21:57:54.580Z,6.30
2023-05-06T22:00:21.244Z,6.30
2023-05-06T22:02:47.959Z,6.17
2023-05-06T22:05:14.732Z,5.53
2023-05-06T22:07:41.810Z,4.70
2023-05-06T22:10:08.800Z,4.50
2023-05-06T22:12:36.240Z,4.47
2023-05-06T22:15:03.244Z,3.70
2023-05-06T22:17:30.581Z,4.40
2023-05-06T22:19:57.536Z,4.10
2023-05-06T22:22:24.513Z,4.60
2023-05-06T22:24:51.190Z,5.70
2023-05-06T22:27:17.760Z,4.67
2023-05-06T22:29:44.324Z,5.50
2023-05-06T22:32:10.865Z,6.87
2023-05-06T22:34:37.397Z,5.87
2023-05-06T22:37:10.855Z,6.93
2023-05-06T22:39:37.402Z,6.63
2023-05-06T22:42:04.028Z,7.47
2023-05-06T22:44:30.725Z,6.90
2023-05-06T22:46:57.330Z,7.23
2023-05-06T22:49:26.056Z,7.40
2023-05-06T22:51:52.655Z,8.50
2023-05-06T22:54:19.257Z,6.77
2023-05-06T22:56:45.957Z,7.60
2023-05-06T22:59:12.546Z,7.40
2023-05-06T23:01:39.370Z,8.53
2023-05-06T23:04:06.226Z,9.13
2023-05-06T23:06:32.952Z,9.73
2023-05-06T23:08:59.626Z,9.67
2023-05-06T23:11:26.195Z,10.37
2023-05-06T23:13:55.047Z,11.47
2023-05-06T23:16:21.662Z,10.97
2023-05-06T23:18:48.323Z,10.90
2023-05-06T23:21:15.044Z,11.67
2023-05-06T23:23:44.887Z,11.97
2023-05-06T23:26:11.428Z,11.83
2023-05-06T23:28:37.988Z,11.40
2023-05-06T23:31:04.713Z,10.83
2023-05-06T23:33:31.290Z,12.83
2023-05-06T23:36:00.614Z,12.33
2023-05-06T23:38:27.214Z,11.43
2023-05-06T23:40:53.966Z,12.20
2023-05-06T23:43:20.555Z,12.80
2023-05-06T23:45:47.124Z,12.60
2023-05-06T23:48:13.726Z,12.70
2023-05-06T23:50:40.398Z,12.97
2023-05-06T23:53:06.940Z,12.83
2023-05-06T23:55:33.682Z,11.90
2023-05-06T23:58:00.266Z,12.30
